Time,TemperatureF,DewpointF,PressureIn,WindDirection,WindDirectionDegrees,WindSpeedMPH,WindSpeedGustMPH,Humidity,HourlyPrecipIn,Conditions,Clouds,dailyrainin,SoftwareType,DateUTC
2013-05-08 00:04:00,58.3,47.4,29.99,NNW,336,0.0,0.0,67,0.00,,,0.00,Wunderground v.1.15,2013-05-08 05:04:00,
2013-05-08 00:13:00,57.3,46.4,29.99,NNW,336,0.0,0.0,67,0.00,,,0.00,Wunderground v.1.15,2013-05-08 05:13:00,
2013-05-08 00:24:00,57.7,44.8,29.99,NNW,336,0.0,0.0,62,0.00,,,0.00,Wunderground v.1.15,2013-05-08 05:24:00,
2013-05-08 00:33:00,58.7,45.7,29.98,NNW,336,0.0,0.0,62,0.00,,,0.00,Wunderground v.1.15,2013-05-08 05:33:00,
2013-05-08 00:43:00,59.8,45.0,29.98,NNW,336,0.0,0.0,58,0.00,,,0.00,Wunderground v.1.15,2013-05-08 05:43:00,
2013-05-08 00:53:00,60.0,45.2,29.98,NNW,336,0.0,0.0,58,0.00,,,0.00,Wunderground v.1.15,2013-05-08 05:53:00,
2013-05-08 01:04:00,60.4,44.6,29.98,NNW,336,0.0,0.0,56,0.00,,,0.00,Wunderground v.1.15,2013-05-08 06:04:00,
2013-05-08 01:13:00,60.1,46.2,29.98,NNW,336,0.0,0.0,60,0.00,,,0.00,Wunderground v.1.15,2013-05-08 06:13:00,
2013-05-08 01:24:00,60.1,46.2,29.98,NNW,337,0.0,0.0,60,0.00,,,0.00,Wunderground v.1.15,2013-05-08 06:24:00,
2013-05-08 01:34:00,60.3,47.6,29.97,ENE,61,0.0,0.0,63,0.00,,,0.00,Wunderground v.1.15,2013-05-08 06:34:00,
2013-05-08 01:43:00,60.1,48.7,29.97,ENE,61,0.0,0.0,66,0.00,,,0.00,Wunderground v.1.15,2013-05-08 06:43:00,
2013-05-08 01:53:00,59.8,49.2,29.97,ENE,61,0.0,0.0,68,0.00,,,0.00,Wunderground v.1.15,2013-05-08 06:53:00,
2013-05-08 02:03:00,59.5,50.1,29.97,ENE,61,0.0,0.0,71,0.00,,,0.00,Wunderground v.1.15,2013-05-08 07:03:00,
2013-05-08 02:13:00,59.2,50.2,29.97,ENE,61,0.0,0.0,72,0.00,,,0.00,Wunderground v.1.15,2013-05-08 07:13:00,
2013-05-08 02:24:00,59.2,49.8,29.97,ENE,62,0.0,0.0,71,0.00,,,0.00,Wunderground v.1.15,2013-05-08 07:24:00,
2013-05-08 02:34:00,59.2,50.2,29.97,ENE,62,0.0,0.0,72,0.00,,,0.00,Wunderground v.1.15,2013-05-08 07:34:00,
2013-05-08 02:43:00,59.0,50.0,29.97,ENE,61,0.0,0.0,72,0.00,,,0.00,Wunderground v.1.15,2013-05-08 07:43:00,
2013-05-08 02:53:00,58.7,50.1,29.98,ENE,61,0.0,0.0,73,0.00,,,0.00,Wunderground v.1.15,2013-05-08 07:53:00,
2013-05-08 03:04:00,58.3,50.0,29.98,ENE,62,0.0,0.0,74,0.00,,,0.00,Wunderground v.1.15,2013-05-08 08:04:00,
2013-05-08 03:13:00,57.9,50.0,29.98,ENE,61,0.0,0.0,75,0.00,,,0.00,Wunderground v.1.15,2013-05-08 08:13:00,
2013-05-08 03:23:00,57.4,50.2,29.98,ENE,61,0.0,0.0,77,0.00,,,0.00,Wunderground v.1.15,2013-05-08 08:23:00,
2013-05-08 03:34:00,57.1,50.0,29.98,ENE,61,0.0,0.0,77,0.00,,,0.00,Wunderground v.1.15,2013-05-08 08:34:00,
2013-05-08 03:43:00,56.7,49.6,29.98,ENE,61,0.0,0.0,77,0.00,,,0.00,Wunderground v.1.15,2013-05-08 08:43:00,
2013-05-08 03:53:00,56.4,50.0,29.98,ENE,61,0.0,0.0,79,0.00,,,0.00,Wunderground v.1.15,2013-05-08 08:53:00,
2013-05-08 04:04:00,55.9,49.8,29.99,ENE,61,0.0,0.0,80,0.00,,,0.00,Wunderground v.1.15,2013-05-08 09:04:00,
2013-05-08 04:13:00,55.8,50.4,29.99,ENE,61,0.0,0.0,82,0.00,,,0.00,Wunderground v.1.15,2013-05-08 09:13:00,
2013-05-08 04:23:00,55.5,50.1,29.99,ENE,62,0.0,0.0,82,0.00,,,0.00,Wunderground v.1.15,2013-05-08 09:23:00,
2013-05-08 04:34:00,55.2,50.1,29.99,ENE,61,0.0,0.0,83,0.00,,,0.00,Wunderground v.1.15,2013-05-08 09:34:00,
2013-05-08 04:44:00,54.9,50.2,29.99,ENE,61,0.0,0.0,84,0.00,,,0.00,Wunderground v.1.15,2013-05-08 09:44:00,
2013-05-08 04:53:00,54.8,50.4,29.99,ENE,61,0.0,0.0,85,0.00,,,0.00,Wunderground v.1.15,2013-05-08 09:53:00,
2013-05-08 05:03:00,54.3,50.2,29.99,ENE,61,0.0,0.0,86,0.00,,,0.00,Wunderground v.1.15,2013-05-08 10:03:00,
2013-05-08 05:14:00,54.3,50.2,30.00,ENE,61,0.0,0.0,86,0.00,,,0.00,Wunderground v.1.15,2013-05-08 10:14:00,
2013-05-08 05:23:00,54.3,50.5,30.00,ENE,61,0.0,0.0,87,0.00,,,0.00,Wunderground v.1.15,2013-05-08 10:23:00,
2013-05-08 05:33:00,54.3,50.5,30.00,ENE,61,0.0,0.0,87,0.00,,,0.00,Wunderground v.1.15,2013-05-08 10:33:00,
2013-05-08 05:44:00,54.3,50.5,30.00,ENE,61,0.0,0.0,87,0.00,,,0.00,Wunderground v.1.15,2013-05-08 10:44:00,
2013-05-08 05:54:00,54.2,50.4,30.01,ENE,61,0.0,0.0,87,0.00,,,0.00,Wunderground v.1.15,2013-05-08 10:54:00,
2013-05-08 06:03:00,54.3,50.5,30.01,ENE,61,0.0,0.0,87,0.00,,,0.00,Wunderground v.1.15,2013-05-08 11:03:00,
2013-05-08 06:14:00,54.2,50.4,30.01,ENE,62,0.0,0.0,87,0.00,,,0.00,Wunderground v.1.15,2013-05-08 11:14:00,
2013-05-08 06:23:00,54.5,50.7,30.01,ENE,61,0.0,0.0,87,0.00,,,0.00,Wunderground v.1.15,2013-05-08 11:23:00,
2013-05-08 06:33:00,55.1,50.7,30.02,ENE,61,0.0,0.0,85,0.00,,,0.00,Wunderground v.1.15,2013-05-08 11:33:00,
2013-05-08 06:43:00,55.8,51.0,30.02,ENE,73,0.0,0.0,84,0.00,,,0.00,Wunderground v.1.15,2013-05-08 11:43:00,
2013-05-08 06:54:00,56.7,51.3,30.02,ENE,73,0.0,0.0,82,0.00,,,0.00,Wunderground v.1.15,2013-05-08 11:54:00,
2013-05-08 07:03:00,57.4,51.3,30.03,ENE,73,0.0,0.0,80,0.00,,,0.00,Wunderground v.1.15,2013-05-08 12:03:00,
2013-05-08 07:14:00,58.5,52.4,30.03,ENE,73,0.0,0.0,80,0.00,,,0.00,Wunderground v.1.15,2013-05-08 12:14:00,
2013-05-08 07:23:00,59.6,53.4,30.03,ENE,73,0.0,0.0,80,0.00,,,0.00,Wunderground v.1.15,2013-05-08 12:23:00,
2013-05-08 07:33:00,60.9,54.3,30.03,ENE,73,0.0,0.0,79,0.00,,,0.00,Wunderground v.1.15,2013-05-08 12:33:00,
2013-05-08 07:43:00,62.2,54.5,30.03,ENE,73,0.0,0.0,76,0.00,,,0.00,Wunderground v.1.15,2013-05-08 12:43:00,
2013-05-08 07:53:00,63.5,55.4,30.03,ENE,73,0.0,0.0,75,0.00,,,0.00,Wunderground v.1.15,2013-05-08 12:53:00,
2013-05-08 08:04:00,64.7,55.8,30.03,ENE,73,0.0,0.0,73,0.00,,,0.00,Wunderground v.1.15,2013-05-08 13:04:00,
2013-05-08 08:13:00,65.4,54.6,30.03,SSE,153,0.0,0.0,68,0.00,,,0.00,Wunderground v.1.15,2013-05-08 13:13:00,
2013-05-08 08:24:00,65.9,54.2,30.04,SSE,153,0.0,0.0,66,0.00,,,0.00,Wunderground v.1.15,2013-05-08 13:24:00,
2013-05-08 08:34:00,66.5,53.9,30.04,SSE,153,0.0,0.0,64,0.00,,,0.00,Wunderground v.1.15,2013-05-08 13:34:00,
2013-05-08 08:43:00,67.2,54.6,30.04,SSE,153,0.0,0.0,64,0.00,,,0.00,Wunderground v.1.15,2013-05-08 13:43:00,
2013-05-08 08:53:00,67.8,52.0,30.04,SSE,153,0.0,0.0,57,0.00,,,0.00,Wunderground v.1.15,2013-05-08 13:53:00,
2013-05-08 09:03:00,69.1,54.2,30.03,SSE,153,0.0,0.0,59,0.00,,,0.00,Wunderground v.1.15,2013-05-08 14:03:00,
2013-05-08 09:13:00,70.1,51.7,30.03,SSE,153,0.0,0.0,52,0.00,,,0.00,Wunderground v.1.15,2013-05-08 14:13:00,
2013-05-08 09:23:00,70.6,51.6,30.03,SSE,153,0.0,0.0,51,0.00,,,0.00,Wunderground v.1.15,2013-05-08 14:23:00,
2013-05-08 09:34:00,71.3,50.0,30.03,SSE,153,0.0,0.0,47,0.00,,,0.00,Wunderground v.1.15,2013-05-08 14:34:00,
2013-05-08 09:43:00,71.8,50.5,30.03,SSE,153,0.0,0.0,47,0.00,,,0.00,Wunderground v.1.15,2013-05-08 14:43:00,
2013-05-08 09:53:00,72.9,47.2,30.03,SSE,153,0.0,0.0,40,0.00,,,0.00,Wunderground v.1.15,2013-05-08 14:53:00,
2013-05-08 10:03:00,74.5,48.6,30.03,SSE,153,0.0,0.0,40,0.00,,,0.00,Wunderground v.1.15,2013-05-08 15:03:00,
2013-05-08 10:13:00,75.3,46.5,30.03,South,171,0.0,0.0,36,0.00,,,0.00,Wunderground v.1.15,2013-05-08 15:13:00,
2013-05-08 10:23:00,76.2,44.2,30.03,South,173,0.0,0.0,32,0.00,,,0.00,Wunderground v.1.15,2013-05-08 15:23:00,
2013-05-08 10:34:00,77.3,45.9,30.04,South,173,0.0,0.0,33,0.00,,,0.00,Wunderground v.1.15,2013-05-08 15:34:00,
2013-05-08 10:44:00,78.5,50.1,30.04,South,181,0.0,0.0,37,0.00,,,0.00,Wunderground v.1.15,2013-05-08 15:44:00,
2013-05-08 10:53:00,78.5,51.5,30.04,SSE,152,0.0,0.0,39,0.00,,,0.00,Wunderground v.1.15,2013-05-08 15:53:00,
2013-05-08 11:03:00,79.0,45.8,30.03,SSE,166,0.0,0.0,31,0.00,,,0.00,Wunderground v.1.15,2013-05-08 16:03:00,
2013-05-08 11:13:00,79.6,47.1,30.03,SSE,166,0.0,0.0,32,0.00,,,0.00,Wunderground v.1.15,2013-05-08 16:13:00,
2013-05-08 11:23:00,80.3,44.2,30.03,SSE,166,0.0,0.0,28,0.00,,,0.00,Wunderground v.1.15,2013-05-08 16:23:00,
2013-05-08 11:33:00,80.8,43.7,30.03,NNE,19,0.0,0.0,27,0.00,,,0.00,Wunderground v.1.15,2013-05-08 16:33:00,
2013-05-08 11:44:00,81.2,45.9,30.03,SSE,165,0.0,0.0,29,0.00,,,0.00,Wunderground v.1.15,2013-05-08 16:44:00,
2013-05-08 11:54:00,81.0,43.9,30.02,SSW,193,0.0,0.0,27,0.00,,,0.00,Wunderground v.1.15,2013-05-08 16:54:00,
2013-05-08 12:03:00,81.2,42.0,30.02,NW,317,0.0,0.0,25,0.00,,,0.00,Wunderground v.1.15,2013-05-08 17:03:00,
2013-05-08 12:13:00,81.8,34.1,30.01,NE,51,0.0,0.0,18,0.00,,,0.00,Wunderground v.1.15,2013-05-08 17:13:00,
2013-05-08 12:23:00,81.8,35.5,30.01,SSE,160,0.0,0.0,19,0.00,,,0.00,Wunderground v.1.15,2013-05-08 17:23:00,
2013-05-08 12:33:00,81.9,40.5,30.01,ESE,122,0.0,0.0,23,0.00,,,0.00,Wunderground v.1.15,2013-05-08 17:33:00,
2013-05-08 12:43:00,82.9,44.5,30.00,NNE,22,0.0,0.0,26,0.00,,,0.00,Wunderground v.1.15,2013-05-08 17:43:00,
2013-05-08 12:53:00,82.9,33.6,30.00,SSW,195,0.0,0.0,17,0.00,,,0.00,Wunderground v.1.15,2013-05-08 17:53:00,
2013-05-08 13:03:00,82.7,33.4,30.00,South,186,0.0,0.0,17,0.00,,,0.00,Wunderground v.1.15,2013-05-08 18:03:00,
2013-05-08 13:13:00,82.3,40.8,30.00,South,190,0.0,0.0,23,0.00,,,0.00,Wunderground v.1.15,2013-05-08 18:13:00,
2013-05-08 13:23:00,82.3,35.9,30.00,SSW,197,0.0,0.0,19,0.00,,,0.00,Wunderground v.1.15,2013-05-08 18:23:00,
2013-05-08 13:33:00,81.6,39.1,29.99,SSW,197,0.0,0.0,22,0.00,,,0.00,Wunderground v.1.15,2013-05-08 18:33:00,
2013-05-08 13:43:00,81.6,39.1,29.99,South,182,0.0,0.0,22,0.00,,,0.00,Wunderground v.1.15,2013-05-08 18:43:00,
2013-05-08 13:53:00,82.5,38.6,29.99,South,189,0.0,0.0,21,0.00,,,0.00,Wunderground v.1.15,2013-05-08 18:53:00,
2013-05-08 14:03:00,82.5,37.4,29.99,SSW,198,0.0,0.0,20,0.00,,,0.00,Wunderground v.1.15,2013-05-08 19:03:00,
2013-05-08 14:13:00,82.7,34.9,29.99,NE,55,0.0,0.0,18,0.00,,,0.00,Wunderground v.1.15,2013-05-08 19:13:00,
2013-05-08 14:23:00,83.1,45.7,29.98,SSE,167,0.0,0.0,27,0.00,,,0.00,Wunderground v.1.15,2013-05-08 19:23:00,
2013-05-08 14:33:00,82.9,48.3,29.98,South,181,0.0,0.0,30,0.00,,,0.00,Wunderground v.1.15,2013-05-08 19:33:00,
2013-05-08 14:48:00,83.1,47.5,29.98,NNE,14,0.0,0.0,29,0.00,,,0.00,Wunderground v.1.15,2013-05-08 19:48:00,
2013-05-08 14:53:00,83.1,35.2,29.98,NNE,13,0.0,0.0,18,0.00,,,0.00,Wunderground v.1.15,2013-05-08 19:53:00,
2013-05-08 15:03:00,82.3,39.6,29.98,NNE,13,0.0,0.0,22,0.00,,,0.00,Wunderground v.1.15,2013-05-08 20:03:00,
2013-05-08 15:13:00,81.6,39.1,29.98,SSE,165,0.0,0.0,22,0.00,,,0.00,Wunderground v.1.15,2013-05-08 20:13:00,
2013-05-08 15:23:00,80.5,47.9,29.97,SSE,165,0.0,0.0,32,0.00,,,0.00,Wunderground v.1.15,2013-05-08 20:23:00,
2013-05-08 15:33:00,80.8,34.7,29.97,SSE,165,0.0,0.0,19,0.00,,,0.00,Wunderground v.1.15,2013-05-08 20:33:00,
2013-05-08 15:43:00,81.0,40.8,29.97,South,178,0.0,0.0,24,0.00,,,0.00,Wunderground v.1.15,2013-05-08 20:43:00,
2013-05-08 15:53:00,81.0,48.4,29.97,East,88,0.0,0.0,32,0.00,,,0.00,Wunderground v.1.15,2013-05-08 20:53:00,
2013-05-08 16:03:00,81.0,44.8,29.97,East,87,0.0,0.0,28,0.00,,,0.00,Wunderground v.1.15,2013-05-08 21:03:00,
2013-05-08 16:13:00,80.6,44.5,29.97,East,87,0.0,0.0,28,0.00,,,0.00,Wunderground v.1.15,2013-05-08 21:13:00,
2013-05-08 16:23:00,80.5,50.3,29.96,East,87,0.0,0.0,35,0.00,,,0.00,Wunderground v.1.15,2013-05-08 21:23:00,
2013-05-08 16:33:00,79.7,43.7,29.96,East,98,0.0,0.0,28,0.00,,,0.00,Wunderground v.1.15,2013-05-08 21:33:00,
2013-05-08 16:43:00,79.9,49.0,29.96,WSW,244,0.0,0.0,34,0.00,,,0.00,Wunderground v.1.15,2013-05-08 21:43:00,
2013-05-08 16:53:00,80.1,48.4,29.96,WSW,244,0.0,0.0,33,0.00,,,0.00,Wunderground v.1.15,2013-05-08 21:53:00,
2013-05-08 17:03:00,80.1,47.6,29.96,WSW,244,0.0,0.0,32,0.00,,,0.00,Wunderground v.1.15,2013-05-08 22:03:00,
2013-05-08 17:13:00,80.6,47.2,29.97,South,185,0.0,0.0,31,0.00,,,0.00,Wunderground v.1.15,2013-05-08 22:13:00,
2013-05-08 17:23:00,80.3,48.6,29.96,South,179,0.0,0.0,33,0.00,,,0.00,Wunderground v.1.15,2013-05-08 22:23:00,
2013-05-08 17:33:00,79.9,53.4,29.96,South,179,0.0,0.0,40,0.00,,,0.00,Wunderground v.1.15,2013-05-08 22:33:00,
2013-05-08 17:43:00,79.2,43.3,29.96,South,179,0.0,0.0,28,0.00,,,0.00,Wunderground v.1.15,2013-05-08 22:43:00,
2013-05-08 17:53:00,79.0,41.2,29.96,South,179,0.0,0.0,26,0.00,,,0.00,Wunderground v.1.15,2013-05-08 22:53:00,
2013-05-08 18:03:00,79.7,45.5,29.96,South,179,0.0,0.0,30,0.00,,,0.00,Wunderground v.1.15,2013-05-08 23:03:00,
2013-05-08 18:13:00,80.5,43.4,29.95,WSW,246,0.0,0.0,27,0.00,,,0.00,Wunderground v.1.15,2013-05-08 23:13:00,
2013-05-08 18:23:00,80.8,34.7,29.95,WSW,246,0.0,0.0,19,0.00,,,0.00,Wunderground v.1.15,2013-05-08 23:23:00,
2013-05-08 18:33:00,80.3,42.3,29.95,WSW,246,0.0,0.0,26,0.00,,,0.00,Wunderground v.1.15,2013-05-08 23:33:00,
2013-05-08 18:43:00,79.2,38.2,29.95,WSW,246,0.0,0.0,23,0.00,,,0.00,Wunderground v.1.15,2013-05-08 23:43:00,
2013-05-08 18:53:00,78.3,49.1,29.95,WSW,246,0.0,0.0,36,0.00,,,0.00,Wunderground v.1.15,2013-05-08 23:53:00,
2013-05-08 19:03:00,77.3,49.7,29.95,WSW,246,0.0,0.0,38,0.00,,,0.00,Wunderground v.1.15,2013-05-09 00:03:00,
2013-05-08 19:13:00,76.2,50.1,29.96,WSW,246,0.0,0.0,40,0.00,,,0.00,Wunderground v.1.15,2013-05-09 00:13:00,
2013-05-08 19:23:00,75.2,49.9,29.96,WSW,246,0.0,0.0,41,0.00,,,0.00,Wunderground v.1.15,2013-05-09 00:23:00,
2013-05-08 19:33:00,74.0,50.1,29.96,WSW,246,0.0,0.0,43,0.00,,,0.00,Wunderground v.1.15,2013-05-09 00:33:00,
2013-05-08 19:43:00,72.6,50.0,29.96,WSW,246,0.0,0.0,45,0.00,,,0.00,Wunderground v.1.15,2013-05-09 00:43:00,
2013-05-08 19:53:00,71.3,50.0,29.96,WSW,246,0.0,0.0,47,0.00,,,0.00,Wunderground v.1.15,2013-05-09 00:53:00,
2013-05-08 20:03:00,70.1,49.5,29.96,WSW,246,0.0,0.0,48,0.00,,,0.00,Wunderground v.1.15,2013-05-09 01:03:00,
2013-05-08 20:13:00,69.4,48.9,29.97,WSW,246,0.0,0.0,48,0.00,,,0.00,Wunderground v.1.15,2013-05-09 01:13:00,
2013-05-08 20:23:00,69.1,49.1,29.97,WSW,246,0.0,0.0,49,0.00,,,0.00,Wunderground v.1.15,2013-05-09 01:23:00,
2013-05-08 20:33:00,68.8,48.9,29.96,WSW,246,0.0,0.0,49,0.00,,,0.00,Wunderground v.1.15,2013-05-09 01:33:00,
2013-05-08 20:43:00,68.4,49.0,29.97,WSW,246,0.0,0.0,50,0.00,,,0.00,Wunderground v.1.15,2013-05-09 01:43:00,
2013-05-08 20:53:00,68.1,51.3,29.97,WSW,246,0.0,0.0,55,0.00,,,0.00,Wunderground v.1.15,2013-05-09 01:53:00,
2013-05-08 21:03:00,67.2,49.5,29.97,WSW,246,0.0,0.0,53,0.00,,,0.00,Wunderground v.1.15,2013-05-09 02:03:00,
2013-05-08 21:13:00,66.8,51.1,29.97,WSW,246,0.0,0.0,57,0.00,,,0.00,Wunderground v.1.15,2013-05-09 02:13:00,
2013-05-08 21:23:00,66.3,50.1,29.98,WSW,246,0.0,0.0,56,0.00,,,0.00,Wunderground v.1.15,2013-05-09 02:23:00,
2013-05-08 21:33:00,66.3,48.7,29.98,WSW,246,0.0,0.0,53,0.00,,,0.00,Wunderground v.1.15,2013-05-09 02:33:00,
2013-05-08 21:43:00,66.0,51.7,29.98,WSW,246,0.0,0.0,60,0.00,,,0.00,Wunderground v.1.15,2013-05-09 02:43:00,
2013-05-08 21:53:00,64.9,50.7,29.98,WSW,246,0.0,0.0,60,0.00,,,0.00,Wunderground v.1.15,2013-05-09 02:53:00,
2013-05-08 22:03:00,64.3,51.4,29.99,WSW,246,0.0,0.0,63,0.00,,,0.00,Wunderground v.1.15,2013-05-09 03:03:00,
2013-05-08 22:13:00,64.1,53.3,29.99,WSW,246,0.0,0.0,68,0.00,,,0.00,Wunderground v.1.15,2013-05-09 03:13:00,
2013-05-08 22:23:00,64.3,56.2,29.99,WSW,246,0.0,0.0,75,0.00,,,0.00,Wunderground v.1.15,2013-05-09 03:23:00,
2013-05-08 22:33:00,64.6,56.9,29.98,WSW,246,0.0,0.0,76,0.00,,,0.00,Wunderground v.1.15,2013-05-09 03:33:00,
2013-05-08 22:43:00,64.7,56.6,29.98,WSW,246,0.0,0.0,75,0.00,,,0.00,Wunderground v.1.15,2013-05-09 03:43:00,
2013-05-08 22:53:00,64.7,56.6,29.97,WSW,246,0.0,0.0,75,0.00,,,0.00,Wunderground v.1.15,2013-05-09 03:53:00,
2013-05-08 23:03:00,64.7,56.2,29.97,WSW,246,0.0,0.0,74,0.00,,,0.00,Wunderground v.1.15,2013-05-09 04:03:00,
2013-05-08 23:07:00,64.7,56.6,29.96,WSW,246,0.0,0.0,75,0.00,,,0.00,Wunderground v.1.15,2013-05-09 04:07:00,
2013-05-08 23:13:00,64.7,56.6,29.96,WSW,246,0.0,0.0,75,0.00,,,0.00,Wunderground v.1.15,2013-05-09 04:13:00,
2013-05-08 23:23:00,64.9,57.2,29.96,WSW,246,0.0,0.0,76,0.00,,,0.00,Wunderground v.1.15,2013-05-09 04:23:00,
2013-05-08 23:33:00,64.9,57.5,29.97,WSW,246,0.0,0.0,77,0.00,,,0.00,Wunderground v.1.15,2013-05-09 04:33:00,
2013-05-08 23:43:00,64.7,57.0,29.96,WSW,246,0.0,0.0,76,0.00,,,0.00,Wunderground v.1.15,2013-05-09 04:43:00,
2013-05-08 23:53:00,64.7,57.7,29.97,WSW,246,0.0,0.0,78,0.00,,,0.00,Wunderground v.1.15,2013-05-09 04:53:00,